Latest Weather Observations for Barimunya

IDW60801

Issued at 12:43 pm WST Tuesday 10 December 2019 (issued every 10 minutes, with the page automatically refreshed every 10 minutes)

About weather observations | Map of weather stations | Latest weather observations for WA | Other Formats
Station Details ID: 505053 Name: BARIMUNYA Lat: -22.67 Lon: 119.16 Height: 629.17 m
Data from the previous 72 hours. | See also: Recent months for locations in Western Australia
Date/Time
WST
Temp
°C
App
Temp
°C
Dew
Point
°C
Rel
Hum
%
Delta-T
°C
Wind Press
QNH
hPa
Press
MSL
hPa
Rain since
9am
mm
Dir  Spd
km/h
Gust
km/h
Spd
kts
Gust
kts
10/12:39pm 40.3 34.2 6.6 13 19.5 NE 28 46 15 25 1012.2 - 0.0
10/12:30pm 40.1 34.7 6.4 13 19.4 NE 24 46 13 25 1012.4 1006.9 0.0
10/12:00pm 41.1 35.6 6.0 12 20.2 ENE 24 41 13 22 1012.9 1007.4 0.0
10/11:30am 38.9 34.2 7.6 15 18.2 NE 22 35 12 19 1013.1 1007.6 0.0
10/11:00am 39.5 34.3 7.1 14 18.8 NE 24 41 13 22 1013.4 1007.9 0.0
10/10:30am 39.4 34.3 5.9 13 19.1 ENE 22 33 12 18 1013.7 1008.3 0.0
10/10:00am 38.1 33.2 7.0 15 17.9 NE 22 33 12 18 1014.1 1008.6 0.0
10/09:30am 37.6 32.5 7.5 16 17.4 NE 24 35 13 19 1014.3 1008.8 0.0
10/09:00am 36.5 31.7 7.5 17 16.7 NE 22 39 12 21 1014.3 1008.8 0.0
10/08:30am 35.4 30.3 7.5 18 16.0 ENE 24 35 13 19 1014.2 1008.7 0.0
10/08:00am 34.3 28.4 7.4 19 15.3 ENE 28 39 15 21 1014.1 1008.6 0.0
10/07:30am 33.6 27.0 7.6 20 14.8 ENE 32 46 17 25 1013.8 1008.4 0.0
10/07:00am 33.0 26.2 7.1 20 14.6 E 32 44 17 24 1013.7 1008.3 0.0
10/06:30am 32.6 29.0 6.7 20 14.5 ESE 15 30 8 16 1013.4 1007.9 0.0
10/06:00am 28.8 28.1 6.8 25 12.1 CALM 0 0 0 0 1013.1 1007.6 0.0
10/05:30am 29.4 26.7 7.3 25 12.3 SSE 11 13 6 7 1012.7 1007.2 0.0
10/05:00am 28.6 26.7 6.7 25 12.0 ESE 6 7 3 4 1012.3 1006.7 0.0
10/04:30am 30.1 27.2 6.7 23 12.9 ESE 11 15 6 8 1011.9 1006.4 0.0
10/04:00am 30.9 27.3 6.7 22 13.4 E 15 24 8 13 1011.6 1006.1 0.0
10/03:30am 31.3 27.0 7.1 22 13.5 E 19 28 10 15 1011.5 1006.0 0.0
10/03:00am 31.7 26.4 6.7 21 13.9 E 24 33 13 18 1011.3 1005.8 0.0
10/02:30am 32.3 25.8 6.5 20 14.3 E 30 44 16 24 1011.3 1005.8 0.0
10/02:00am 32.7 27.4 6.8 20 14.5 E 24 37 13 20 1011.4 1005.9 0.0
10/01:30am 33.5 26.9 5.9 18 15.3 ESE 30 41 16 22 1011.4 1005.9 0.0
10/01:00am 34.4 29.5 5.0 16 16.1 E 20 30 11 16 1011.7 1006.2 0.0
10/12:30am 34.8 30.5 3.4 14 16.8 E 15 20 8 11 1011.7 1006.2 0.0
10/12:00am 36.0 30.0 3.3 13 17.6 NE 24 46 13 25 1011.9 1006.4 0.0
 
Date/Time
WST
Temp
°C
App
Temp
°C
Dew
Point
°C
Rel
Hum
%
Delta-T
°C
Wind Press
QNH
hPa
Press
MSL
hPa
Rain since
9am
mm
Dir  Spd
km/h
Gust
km/h
Spd
kts
Gust
kts
09/11:57pm 36.1 29.7 3.3 13 17.7 NE 26 46 14 25 1011.9 1006.4 0.0
09/11:30pm 35.2 30.4 2.6 13 17.3 NNE 17 30 9 16 1012.1 1006.6 0.0
09/11:00pm 37.4 31.9 0.7 10 19.1 S 19 33 10 18 1011.8 1006.3 0.0
09/10:30pm 37.3 32.8 1.9 11 18.8 SE 15 26 8 14 1011.9 1006.4 0.0
09/10:00pm 36.8 31.8 1.5 11 18.6 SSE 17 24 9 13 1012.1 1006.6 0.0
09/09:30pm 36.9 31.4 1.6 11 18.6 ESE 20 28 11 15 1012.1 1006.6 0.0
09/09:00pm 35.6 32.2 1.8 12 17.7 E 9 11 5 6 1012.0 1006.5 0.0
09/08:30pm 37.0 32.8 1.7 11 18.6 ESE 13 17 7 9 1011.9 1006.4 0.0
09/08:00pm 37.1 34.1 1.8 11 18.7 SSE 7 9 4 5 1011.6 1006.1 0.0
09/07:30pm 37.8 35.6 1.0 10 19.3 WNW 2 9 1 5 1011.3 1005.8 0.0
09/07:00pm 37.9 33.2 1.0 10 19.4 NE 15 30 8 16 1011.2 1005.7 0.0
09/06:30pm 37.9 33.8 2.4 11 19.0 NW 13 19 7 10 1011.0 1005.5 0.0
09/06:00pm 38.9 34.0 1.8 10 19.8 NW 17 24 9 13 1010.7 1005.1 0.0
09/05:30pm 39.0 32.4 1.9 10 19.9 NNW 26 37 14 20 1010.4 1004.9 0.0
09/05:00pm 40.1 33.7 1.2 9 20.8 SSW 24 39 13 21 1010.1 1004.6 0.0
09/04:54pm 40.3 33.4 2.8 10 20.5 SSW 28 39 15 21 1010.0 - 0.0
09/04:30pm 40.6 36.8 1.6 9 21.0 ESE 11 19 6 10 1010.0 1004.5 0.0
09/04:00pm 40.5 35.1 1.5 9 20.9 E 19 39 10 21 1009.9 1004.4 0.0
09/03:56pm 40.8 36.2 1.7 9 21.1 NE 15 39 8 21 1009.8 1004.3 0.0
09/03:30pm 41.1 37.3 2.0 9 21.2 NNW 11 26 6 14 1010.3 1004.8 0.0
09/03:00pm 40.4 36.9 1.4 9 20.9 WSW 9 19 5 10 1010.7 1005.1 0.0
09/02:30pm 39.5 35.8 2.2 10 20.1 NW 11 17 6 9 1011.0 1005.5 0.0
09/02:00pm 40.5 36.9 3.0 10 20.6 W 11 22 6 12 1011.4 1005.9 0.0
09/01:30pm 39.9 35.5 2.5 10 20.3 SE 15 30 8 16 1011.8 1006.3 0.0
09/01:00pm 38.6 35.0 2.9 11 19.4 S 11 20 6 11 1012.3 1006.7 0.0
09/12:30pm 38.2 33.6 1.3 10 19.5 NE 15 28 8 15 1012.7 1007.2 0.0
09/12:00pm 38.6 33.5 2.9 11 19.4 SSE 19 32 10 17 1013.0 1007.5 0.0
09/11:30am 37.8 32.6 3.5 12 18.7 E 20 30 11 16 1013.5 1008.0 0.0
09/11:00am 37.7 32.3 4.6 13 18.3 E 22 35 12 19 1014.0 1008.5 0.0
09/10:30am 36.6 30.1 4.8 14 17.6 SE 28 39 15 21 1014.2 1008.7 0.0
09/10:00am 36.2 29.5 5.5 15 17.1 SE 30 39 16 21 1014.4 1008.9 0.0
09/09:38am 36.0 29.4 4.3 14 17.3 ESE 28 46 15 25 1014.6 1009.1 0.0
09/09:30am 34.8 28.0 5.3 16 16.3 SE 30 43 16 23 1014.6 1009.1 0.0
09/09:00am 34.0 26.7 5.5 17 15.7 SE 33 44 18 24 1014.8 1009.3 0.0
09/08:30am 34.2 27.3 4.8 16 16.0 SE 30 39 16 21 1014.9 1009.4 0.0
09/08:00am 32.7 26.4 3.6 16 15.5 SE 26 39 14 21 1014.8 1009.3 0.0
09/07:30am 31.3 24.6 3.4 17 14.7 SSE 28 39 15 21 1014.7 1009.2 0.0
09/07:00am 30.1 24.5 3.2 18 14.0 SSE 22 32 12 17 1014.6 1009.1 0.0
09/06:30am 29.2 23.9 3.2 19 13.4 S 20 28 11 15 1014.5 1009.0 0.0
09/06:00am 28.1 23.0 3.0 20 12.8 S 19 26 10 14 1014.1 1008.6 0.0
09/05:30am 26.9 22.6 3.4 22 12.0 S 15 19 8 10 1013.7 1008.3 0.0
09/05:00am 26.8 22.5 3.3 22 12.0 S 15 19 8 10 1013.4 1007.9 0.0
09/04:30am 27.6 22.5 3.3 21 12.5 S 19 24 10 13 1013.2 1007.7 0.0
09/04:00am 27.9 22.9 3.6 21 12.6 SSW 19 28 10 15 1013.0 1007.5 0.0
09/03:30am 28.1 23.4 3.0 20 12.8 SSW 17 22 9 12 1012.8 1007.3 0.0
09/03:00am 28.6 23.4 2.7 19 13.2 SSW 19 28 10 15 1012.8 1007.3 0.0
09/02:30am 29.4 23.7 2.6 18 13.7 SSW 22 33 12 18 1012.6 1007.1 0.0
09/02:00am 29.7 24.6 2.9 18 13.8 SSW 19 30 10 16 1012.5 1007.0 0.0
09/01:30am 29.5 25.1 2.7 18 13.8 SSW 15 19 8 10 1012.6 1007.1 0.0
09/01:00am 30.1 25.6 2.4 17 14.2 SSW 15 24 8 13 1012.8 1007.3 0.0
09/12:30am 30.7 26.3 2.9 17 14.4 SW 15 20 8 11 1012.7 1007.2 0.0
09/12:00am 31.2 26.0 2.4 16 14.9 SW 19 26 10 14 1013.0 1007.5 0.0
 
Date/Time
WST
Temp
°C
App
Temp
°C
Dew
Point
°C
Rel
Hum
%
Delta-T
°C
Wind Press
QNH
hPa
Press
MSL
hPa
Rain since
9am
mm
Dir  Spd
km/h
Gust
km/h
Spd
kts
Gust
kts
08/11:30pm 31.0 26.9 2.3 16 14.8 SSW 13 17 7 9 1013.2 1007.7 0.0
08/11:00pm 31.0 27.1 1.4 15 15.0 SSW 11 13 6 7 1013.4 1007.9 0.0
08/10:30pm 31.7 27.9 1.9 15 15.3 SW 11 13 6 7 1013.5 1008.0 0.0
08/10:00pm 32.5 27.9 1.6 14 15.9 SSW 15 20 8 11 1013.5 1008.0 0.0
08/09:30pm 32.8 28.6 1.8 14 16.0 SSW 13 17 7 9 1013.4 1007.9 0.0
08/09:00pm 33.4 28.4 1.3 13 16.5 SSW 17 20 9 11 1013.4 1007.9 0.0
08/08:30pm 33.4 29.5 1.3 13 16.5 SW 11 15 6 8 1013.2 1007.7 0.0
08/08:00pm 34.4 29.7 0.9 12 17.2 SSW 15 19 8 10 1013.0 1007.5 0.0
08/07:30pm 34.8 30.5 1.2 12 17.4 SW 13 17 7 9 1012.7 1007.2 0.0
08/07:00pm 35.5 31.1 0.6 11 18.0 SW 13 20 7 11 1012.4 1006.9 0.0
08/06:30pm 36.4 31.4 1.2 11 18.4 SSW 17 20 9 11 1011.9 1006.4 0.0
08/06:00pm 37.2 32.8 0.5 10 19.1 S 13 24 7 13 1011.6 1006.1 0.0
08/05:30pm 38.1 33.1 1.2 10 19.4 SW 17 26 9 14 1011.2 1005.7 0.0
08/05:00pm 37.7 34.1 0.9 10 19.3 SW 9 19 5 10 1011.2 1005.7 0.0
08/04:30pm 37.5 32.8 0.7 10 19.2 S 15 26 8 14 1011.2 1005.7 0.0
08/04:00pm 37.7 32.2 0.9 10 19.3 SSW 19 30 10 16 1011.3 1005.8 0.0
08/03:30pm 38.1 32.5 1.2 10 19.4 WSW 20 32 11 17 1011.5 1006.0 0.0
08/03:00pm 38.1 33.8 1.2 10 19.5 NE 13 22 7 12 1011.7 1006.2 0.0
08/02:30pm 37.6 31.6 0.8 10 19.2 W 22 33 12 18 1012.0 1006.5 0.0
08/02:00pm 38.0 33.3 1.1 10 19.4 S 15 26 8 14 1012.3 1006.7 0.0
08/01:30pm 38.5 35.0 1.5 10 19.6 SE 9 15 5 8 1012.5 1007.0 0.0
08/01:00pm 36.5 32.2 1.3 11 18.4 WSW 13 28 7 15 1013.0 1007.5 0.0
08/12:30pm 37.0 32.1 1.7 11 18.6 SE 17 33 9 18 1013.4 1007.9 0.0
08/12:00pm 36.5 31.3 2.5 12 18.1 S 19 35 10 19 1013.7 1008.3 0.0
08/11:30am 35.8 29.6 2.0 12 17.8 SW 24 33 13 18 1014.0 1008.5 0.0
08/11:00am 35.5 29.8 2.9 13 17.4 S 22 37 12 20 1014.3 1008.8 0.0
08/10:30am 35.3 28.8 2.7 13 17.3 SSW 26 39 14 21 1014.7 1009.2 0.0
08/10:00am 34.4 28.4 3.1 14 16.6 S 24 41 13 22 1014.9 1009.4 0.0
08/09:30am 33.8 27.3 2.6 14 16.4 SSW 26 41 14 22 1015.1 1009.6 0.0
08/09:00am 33.1 26.3 3.0 15 15.9 S 28 41 15 22 1015.1 1009.6 0.0
08/08:30am 32.6 25.7 2.6 15 15.7 SSW 28 39 15 21 1015.2 1009.8 0.0
08/08:00am 32.0 25.2 3.1 16 15.2 SSW 28 41 15 22 1015.2 1009.8 0.0
08/07:30am 30.8 23.6 3.0 17 14.5 SSW 30 39 16 21 1015.1 1009.6 0.0
08/07:00am 30.0 22.8 3.1 18 14.0 SSW 30 43 16 23 1014.8 1009.3 0.0
08/06:30am 29.1 22.7 3.1 19 13.4 SSW 26 35 14 19 1014.6 1009.1 0.0
08/06:00am 28.5 22.5 3.4 20 13.0 SSW 24 32 13 17 1014.4 1008.9 0.0
08/05:30am 27.9 22.2 2.9 20 12.8 SSW 22 32 12 17 1014.1 1008.6 0.0
08/05:00am 28.4 22.4 3.3 20 12.9 SSW 24 33 13 18 1013.7 1008.3 0.0
08/04:30am 28.5 23.3 3.4 20 13.0 SSW 20 28 11 15 1013.4 1007.9 0.0
08/04:00am 28.8 23.1 2.9 19 13.3 SW 22 33 12 18 1013.1 1007.6 0.0
08/03:30am 29.1 23.7 2.4 18 13.6 SW 20 32 11 17 1012.8 1007.3 0.0
08/03:00am 29.6 23.4 2.0 17 14.0 SSW 24 35 13 19 1012.5 1007.0 0.0
08/02:50am 29.9 22.9 2.2 17 14.1 SSW 28 41 15 22 1012.4 1006.9 0.0
08/02:30am 28.2 23.2 -0.9 15 13.9 SW 15 17 8 9 1012.5 1007.0 0.0
08/02:00am 27.8 23.6 -1.2 15 13.8 SW 11 13 6 7 1012.1 1006.6 0.0
08/01:30am 28.0 24.0 -2.0 14 14.1 SW 9 11 5 6 1012.3 1006.7 0.0
08/01:00am 28.4 24.9 -1.6 14 14.2 SW 7 9 4 5 1012.5 1007.0 0.0
08/12:30am 28.8 25.3 -1.3 14 14.4 SW 7 9 4 5 1012.8 1007.3 0.0
08/12:00am 30.0 25.7 -1.4 13 15.1 SW 11 13 6 7 1013.0 1007.5 0.0
 
Date/Time
WST
Temp
°C
App
Temp
°C
Dew
Point
°C
Rel
Hum
%
Delta-T
°C
Wind Press
QNH
hPa
Press
MSL
hPa
Rain since
9am
mm
Dir  Spd
km/h
Gust
km/h
Spd
kts
Gust
kts
07/11:30pm 30.7 26.7 0.2 14 15.1 W 11 15 6 8 1013.1 1007.6 0.0
07/11:00pm 31.1 27.3 4.0 18 14.4 WNW 13 15 7 8 1013.2 1007.7 0.0
07/10:30pm 31.7 27.5 1.9 15 15.3 W 13 15 7 8 1013.2 1007.7 0.0
07/10:00pm 32.8 27.2 -0.3 12 16.5 N 19 24 10 13 1013.0 1007.5 0.0
07/09:30pm 32.7 27.1 -2.9 10 17.0 N 17 19 9 10 1012.9 1007.4 0.0
07/09:00pm 33.5 28.2 -3.7 9 17.6 N 15 20 8 11 1012.6 1007.1 0.0
07/08:30pm 34.0 28.9 -4.9 8 18.1 N 13 17 7 9 1012.3 1006.7 0.0
07/08:00pm 34.4 29.0 -4.6 8 18.3 NNW 15 20 8 11 1011.9 1006.4 0.0
07/07:30pm 35.4 29.7 -3.8 8 18.8 N 17 24 9 13 1011.5 1006.0 0.0
07/07:00pm 35.9 29.8 -3.5 8 19.1 NNW 19 28 10 15 1011.3 1005.8 0.0
07/06:30pm 36.7 30.5 -2.9 8 19.4 NNW 20 28 11 15 1011.0 1005.5 0.0
07/06:00pm 37.5 31.0 -2.3 8 19.8 NNW 22 33 12 18 1010.6 1005.0 0.0
07/05:30pm 38.4 32.2 -3.4 7 20.6 NW 20 32 11 17 1010.3 1004.8 0.0
07/05:11pm 38.7 31.2 -1.4 8 20.4 NNW 28 48 15 26 1010.0 1004.5 0.0
07/05:00pm 39.0 32.1 -3.0 7 20.9 NNW 24 35 13 19 1010.0 1004.5 0.0
07/04:33pm 38.9 31.2 -3.1 7 20.8 NW 28 46 15 25 1009.9 1004.4 0.0
07/04:30pm 39.2 32.3 -2.9 7 21.0 NW 24 37 13 20 1009.9 1004.4 0.0
07/04:22pm 39.7 32.1 -2.5 7 21.2 NW 28 46 15 25 1010.0 - 0.0
07/04:15pm 38.7 29.5 -1.4 8 20.4 NNW 37 56 20 30 1010.1 - 0.0
07/04:10pm 39.2 31.7 -1.1 8 20.6 WNW 28 48 15 26 1009.9 1004.4 0.0
07/04:00pm 39.1 31.4 -2.9 7 20.9 NW 28 43 15 23 1010.0 1004.5 0.0
07/03:36pm 39.8 32.4 -0.6 8 20.9 NNW 28 46 15 25 1010.1 1004.6 0.0
07/03:35pm 39.7 32.3 -0.7 8 20.9 NNW 28 46 15 25 1010.1 - 0.0
07/03:30pm 39.4 33.1 -0.9 8 20.7 NNW 22 41 12 22 1009.9 1004.4 0.0
07/03:10pm 39.7 32.3 -0.7 8 20.9 NNW 28 46 15 25 1010.3 1004.8 0.0
07/03:00pm 39.9 32.9 -0.5 8 21.0 NW 26 43 14 23 1010.3 1004.8 0.0
07/02:32pm 39.2 31.0 -1.1 8 20.6 NNW 32 50 17 27 1010.7 1005.1 0.0
07/02:30pm 39.2 30.8 -1.1 8 20.6 NNW 33 50 18 27 1010.8 1005.2 0.0
07/02:23pm 39.5 30.4 -0.8 8 20.8 NNW 37 50 20 27 1010.7 - 0.0
07/02:00pm 39.1 31.6 -1.1 8 20.6 NW 28 44 15 24 1011.0 1005.5 0.0
07/01:30pm 39.6 31.4 -0.8 8 20.8 NNW 32 52 17 28 1011.3 1005.8 0.0
07/01:22pm 39.0 31.5 -1.2 8 20.5 NNW 28 52 15 28 1011.4 1005.9 0.0
07/01:00pm 38.7 32.6 0.2 9 20.1 NNW 22 37 12 20 1011.5 1006.0 0.0

Other formats

Comma delimited format used in spreadsheet applications
http://www.bom.gov.au/fwo/IDW60801/IDW60801.99313.axf

JavaScript Object Notation format (JSON) in row-major order
http://www.bom.gov.au/fwo/IDW60801/IDW60801.99313.json

Data quality

Most of these data are generated automatically and are frequently updated. Quality checks on data are not normally performed. It is possible for incorrect values to appear. Refer to information at About Latest Weather Observations and please check the disclaimer before using these data.